sensor_id;sensor_type;location;lat;lon;timestamp;pressure;altitude;pressure_sealevel;temperature;humidity
27334;BME280;14817;57.104;-2.094;2024-03-23T00:56:15;98735.94;;;5.39;100.00
27334;BME280;14817;57.104;-2.094;2024-03-23T00:58:41;98735.94;;;5.39;100.00
27334;BME280;14817;57.104;-2.094;2024-03-23T01:01:07;98727.28;;;5.37;100.00
27334;BME280;14817;57.104;-2.094;2024-03-23T01:03:33;98730.97;;;5.36;100.00
27334;BME280;14817;57.104;-2.094;2024-03-23T01:06:00;98717.34;;;5.39;100.00
27334;BME280;14817;57.104;-2.094;2024-03-23T01:08:26;98711.34;;;5.21;100.00
27334;BME280;14817;57.104;-2.094;2024-03-23T01:10:59;98715.03;;;5.36;100.00
27334;BME280;14817;57.104;-2.094;2024-03-23T01:13:26;98707.06;;;5.28;100.00
27334;BME280;14817;57.104;-2.094;2024-03-23T01:15:52;98704.41;;;5.36;100.00
27334;BME280;14817;57.104;-2.094;2024-03-23T01:18:19;98708.91;;;5.36;100.00
27334;BME280;14817;57.104;-2.094;2024-03-23T01:20:45;98702.59;;;5.37;100.00
27334;BME280;14817;57.104;-2.094;2024-03-23T01:23:12;98696.78;;;5.41;100.00
27334;BME280;14817;57.104;-2.094;2024-03-23T01:25:38;98697.28;;;5.37;100.00
27334;BME280;14817;57.104;-2.094;2024-03-23T01:28:04;98690.97;;;5.38;100.00
27334;BME280;14817;57.104;-2.094;2024-03-23T01:30:35;98680.53;;;5.36;100.00
27334;BME280;14817;57.104;-2.094;2024-03-23T01:33:01;98675.22;;;5.36;100.00
27334;BME280;14817;57.104;-2.094;2024-03-23T01:35:28;98669.72;;;5.46;100.00
27334;BME280;14817;57.104;-2.094;2024-03-23T01:37:54;98676.56;;;5.48;100.00
27334;BME280;14817;57.104;-2.094;2024-03-23T01:40:20;98672.06;;;5.49;100.00
27334;BME280;14817;57.104;-2.094;2024-03-23T01:43:15;98676.56;;;5.48;100.00
27334;BME280;14817;57.104;-2.094;2024-03-23T01:45:41;98667.25;;;5.52;100.00
27334;BME280;14817;57.104;-2.094;2024-03-23T01:48:07;98659.28;;;5.52;100.00
27334;BME280;14817;57.104;-2.094;2024-03-23T01:50:34;98649.34;;;5.46;100.00
27334;BME280;14817;57.104;-2.094;2024-03-23T01:53:04;98651.66;;;5.58;100.00
27334;BME280;14817;57.104;-2.094;2024-03-23T01:55:35;98641.19;;;5.56;100.00
27334;BME280;14817;57.104;-2.094;2024-03-23T01:58:04;98644.50;;;5.58;100.00
27334;BME280;14817;57.104;-2.094;2024-03-23T02:00:30;98630.06;;;5.52;100.00
27334;BME280;14817;57.104;-2.094;2024-03-23T02:02:56;98612.81;;;5.57;100.00
27334;BME280;14817;57.104;-2.094;2024-03-23T02:05:22;98629.41;;;5.59;100.00
27334;BME280;14817;57.104;-2.094;2024-03-23T02:07:48;98635.38;;;5.61;100.00
27334;BME280;14817;57.104;-2.094;2024-03-23T02:10:13;98626.75;;;5.59;100.00
27334;BME280;14817;57.104;-2.094;2024-03-23T02:12:40;98620.78;;;5.57;100.00
27334;BME280;14817;57.104;-2.094;2024-03-23T02:15:06;98632.09;;;5.50;100.00
27334;BME280;14817;57.104;-2.094;2024-03-23T02:17:35;98614.84;;;5.46;100.00
27334;BME280;14817;57.104;-2.094;2024-03-23T02:20:02;98616.63;;;5.62;100.00
27334;BME280;14817;57.104;-2.094;2024-03-23T02:22:38;98603.69;;;5.59;100.00
27334;BME280;14817;57.104;-2.094;2024-03-23T02:25:05;98594.22;;;5.57;100.00
27334;BME280;14817;57.104;-2.094;2024-03-23T02:27:31;98589.09;;;5.47;100.00
27334;BME280;14817;57.104;-2.094;2024-03-23T02:29:57;98589.63;;;5.50;100.00
27334;BME280;14817;57.104;-2.094;2024-03-23T02:32:23;98588.94;;;5.48;100.00
27334;BME280;14817;57.104;-2.094;2024-03-23T02:34:49;98582.78;;;5.40;100.00
27334;BME280;14817;57.104;-2.094;2024-03-23T02:37:15;98569.34;;;5.41;100.00
27334;BME280;14817;57.104;-2.094;2024-03-23T02:39:40;98558.94;;;5.31;100.00
27334;BME280;14817;57.104;-2.094;2024-03-23T02:42:06;98567.88;;;5.39;100.00
27334;BME280;14817;57.104;-2.094;2024-03-23T02:44:32;98571.03;;;5.50;100.00
27334;BME280;14817;57.104;-2.094;2024-03-23T02:46:58;98568.88;;;5.38;100.00
27334;BME280;14817;57.104;-2.094;2024-03-23T02:49:24;98571.03;;;5.42;100.00
27334;BME280;14817;57.104;-2.094;2024-03-23T02:51:50;98572.69;;;5.43;100.00
27334;BME280;14817;57.104;-2.094;2024-03-23T02:54:16;98570.69;;;5.45;100.00
27334;BME280;14817;57.104;-2.094;2024-03-23T02:56:42;98567.03;;;5.46;100.00
27334;BME280;14817;57.104;-2.094;2024-03-23T02:59:08;98564.41;;;5.38;100.00
27334;BME280;14817;57.104;-2.094;2024-03-23T03:01:34;98566.69;;;5.41;100.00
27334;BME280;14817;57.104;-2.094;2024-03-23T03:04:00;98562.41;;;5.48;100.00
27334;BME280;14817;57.104;-2.094;2024-03-23T03:06:26;98563.53;;;5.54;100.00
27334;BME280;14817;57.104;-2.094;2024-03-23T03:08:52;98564.53;;;5.53;100.00
27334;BME280;14817;57.104;-2.094;2024-03-23T03:11:18;98557.06;;;5.57;100.00
27334;BME280;14817;57.104;-2.094;2024-03-23T03:13:44;98555.41;;;5.56;100.00
27334;BME280;14817;57.104;-2.094;2024-03-23T03:16:10;98559.22;;;5.53;100.00
27334;BME280;14817;57.104;-2.094;2024-03-23T03:18:36;98552.91;;;5.54;100.00
27334;BME280;14817;57.104;-2.094;2024-03-23T03:21:03;98557.75;;;5.50;100.00
27334;BME280;14817;57.104;-2.094;2024-03-23T03:23:31;98549.78;;;5.50;100.00
27334;BME280;14817;57.104;-2.094;2024-03-23T03:25:57;98552.09;;;5.45;100.00
27334;BME280;14817;57.104;-2.094;2024-03-23T03:28:23;98555.41;;;5.47;100.00
27334;BME280;14817;57.104;-2.094;2024-03-23T03:30:49;98552.25;;;5.44;100.00
27334;BME280;14817;57.104;-2.094;2024-03-23T03:33:15;98553.44;;;5.41;100.00
27334;BME280;14817;57.104;-2.094;2024-03-23T03:35:41;98555.09;;;5.42;100.00
27334;BME280;14817;57.104;-2.094;2024-03-23T03:38:07;98547.28;;;5.49;100.00
27334;BME280;14817;57.104;-2.094;2024-03-23T03:40:32;98553.44;;;5.41;100.00
27334;BME280;14817;57.104;-2.094;2024-03-23T03:42:58;98546.13;;;5.35;100.00
27334;BME280;14817;57.104;-2.094;2024-03-23T03:45:24;98555.09;;;5.42;100.00
27334;BME280;14817;57.104;-2.094;2024-03-23T03:47:50;98544.81;;;5.39;100.00
27334;BME280;14817;57.104;-2.094;2024-03-23T03:50:15;98547.97;;;5.35;100.00
27334;BME280;14817;57.104;-2.094;2024-03-23T03:52:41;98531.38;;;5.24;100.00
27334;BME280;14817;57.104;-2.094;2024-03-23T03:55:13;98536.88;;;5.23;100.00
27334;BME280;14817;57.104;-2.094;2024-03-23T03:57:39;98534.69;;;5.26;100.00
27334;BME280;14817;57.104;-2.094;2024-03-23T04:00:05;98536.84;;;5.31;100.00
27334;BME280;14817;57.104;-2.094;2024-03-23T04:02:31;98525.25;;;5.24;100.00
27334;BME280;14817;57.104;-2.094;2024-03-23T04:04:57;98532.56;;;5.22;100.00
27334;BME280;14817;57.104;-2.094;2024-03-23T04:07:23;98531.22;;;5.26;100.00
27334;BME280;14817;57.104;-2.094;2024-03-23T04:09:49;98527.91;;;5.24;100.00
27334;BME280;14817;57.104;-2.094;2024-03-23T04:12:15;98536.19;;;5.29;100.00
27334;BME280;14817;57.104;-2.094;2024-03-23T04:14:41;98525.25;;;5.32;100.00
27334;BME280;14817;57.104;-2.094;2024-03-23T04:17:07;98530.56;;;5.40;100.00
27334;BME280;14817;57.104;-2.094;2024-03-23T04:19:33;98517.94;;;5.34;100.00
27334;BME280;14817;57.104;-2.094;2024-03-23T04:21:58;98517.28;;;5.40;100.00
27334;BME280;14817;57.104;-2.094;2024-03-23T04:24:24;98518.41;;;5.46;100.00
27334;BME280;14817;57.104;-2.094;2024-03-23T04:26:52;98514.63;;;5.40;100.00
27334;BME280;14817;57.104;-2.094;2024-03-23T04:29:18;98493.69;;;5.45;100.00
27334;BME280;14817;57.104;-2.094;2024-03-23T04:31:43;98489.72;;;5.41;100.00
27334;BME280;14817;57.104;-2.094;2024-03-23T04:34:10;98486.25;;;5.32;100.00
27334;BME280;14817;57.104;-2.094;2024-03-23T04:36:35;98478.81;;;5.28;100.00
27334;BME280;14817;57.104;-2.094;2024-03-23T04:39:02;98475.81;;;5.31;100.00
27334;BME280;14817;57.104;-2.094;2024-03-23T04:41:28;98470.81;;;5.44;100.00
27334;BME280;14817;57.104;-2.094;2024-03-23T04:43:54;98474.97;;;5.39;100.00
27334;BME280;14817;57.104;-2.094;2024-03-23T04:46:19;98463.84;;;5.43;100.00
27334;BME280;14817;57.104;-2.094;2024-03-23T04:48:46;98467.81;;;5.47;100.00
27334;BME280;14817;57.104;-2.094;2024-03-23T04:51:24;98451.72;;;5.49;100.00
27334;BME280;14817;57.104;-2.094;2024-03-23T04:53:50;98448.91;;;5.50;100.00
27334;BME280;14817;57.104;-2.094;2024-03-23T04:56:17;98449.22;;;5.56;100.00
27334;BME280;14817;57.104;-2.094;2024-03-23T04:58:43;98457.81;;;5.58;100.00
27334;BME280;14817;57.104;-2.094;2024-03-23T05:01:13;98448.84;;;5.59;100.00
27334;BME280;14817;57.104;-2.094;2024-03-23T05:03:39;98451.72;;;5.49;100.00
27334;BME280;14817;57.104;-2.094;2024-03-23T05:06:05;98443.41;;;5.52;100.00
27334;BME280;14817;57.104;-2.094;2024-03-23T05:08:32;98450.03;;;5.56;100.00
27334;BME280;14817;57.104;-2.094;2024-03-23T05:10:58;98455.56;;;5.46;100.00
27334;BME280;14817;57.104;-2.094;2024-03-23T05:13:24;98467.50;;;5.50;100.00
27334;BME280;14817;57.104;-2.094;2024-03-23T05:15:53;98478.94;;;5.51;100.00
27334;BME280;14817;57.104;-2.094;2024-03-23T05:18:20;98464.97;;;5.57;100.00
27334;BME280;14817;57.104;-2.094;2024-03-23T05:20:46;98460.00;;;5.54;100.00
27334;BME280;14817;57.104;-2.094;2024-03-23T05:23:12;98461.13;;;5.60;100.00
27334;BME280;14817;57.104;-2.094;2024-03-23T05:25:37;98461.63;;;5.63;100.00
27334;BME280;14817;57.104;-2.094;2024-03-23T05:28:03;98451.19;;;5.53;100.00
27334;BME280;14817;57.104;-2.094;2024-03-23T05:30:29;98453.50;;;5.57;100.00
27334;BME280;14817;57.104;-2.094;2024-03-23T05:32:55;98444.75;;;5.48;100.00
27334;BME280;14817;57.104;-2.094;2024-03-23T05:35:21;98460.38;;;5.43;100.00
27334;BME280;14817;57.104;-2.094;2024-03-23T05:37:47;98453.88;;;5.45;100.00
27334;BME280;14817;57.104;-2.094;2024-03-23T05:40:13;98454.69;;;5.46;100.00
27334;BME280;14817;57.104;-2.094;2024-03-23T05:42:41;98451.06;;;5.47;100.00
27334;BME280;14817;57.104;-2.094;2024-03-23T05:45:07;98447.09;;;5.43;100.00
27334;BME280;14817;57.104;-2.094;2024-03-23T05:47:33;98439.94;;;5.43;100.00
27334;BME280;14817;57.104;-2.094;2024-03-23T05:49:59;98437.28;;;5.43;100.00
27334;BME280;14817;57.104;-2.094;2024-03-23T05:52:25;98441.94;;;5.41;100.00
27334;BME280;14817;57.104;-2.094;2024-03-23T05:54:52;98436.13;;;5.46;100.00
27334;BME280;14817;57.104;-2.094;2024-03-23T05:57:18;98435.00;;;5.40;100.00
27334;BME280;14817;57.104;-2.094;2024-03-23T05:59:45;98430.94;;;5.52;100.00
27334;BME280;14817;57.104;-2.094;2024-03-23T06:02:11;98421.88;;;5.47;100.00
27334;BME280;14817;57.104;-2.094;2024-03-23T06:04:37;98437.78;;;5.47;100.00
27334;BME280;14817;57.104;-2.094;2024-03-23T06:07:03;98439.75;;;5.53;100.00
27334;BME280;14817;57.104;-2.094;2024-03-23T06:09:32;98442.97;;;5.40;100.00
27334;BME280;14817;57.104;-2.094;2024-03-23T06:11:57;98436.31;;;5.44;100.00
27334;BME280;14817;57.104;-2.094;2024-03-23T06:14:23;98440.59;;;5.45;100.00
27334;BME280;14817;57.104;-2.094;2024-03-23T06:16:49;98438.31;;;5.42;100.00
27334;BME280;14817;57.104;-2.094;2024-03-23T06:19:15;98441.09;;;5.49;100.00
27334;BME280;14817;57.104;-2.094;2024-03-23T06:21:44;98441.63;;;5.44;100.00
27334;BME280;14817;57.104;-2.094;2024-03-23T06:24:11;98433.97;;;5.41;100.00
27334;BME280;14817;57.104;-2.094;2024-03-23T06:26:37;98437.47;;;5.42;100.00
27334;BME280;14817;57.104;-2.094;2024-03-23T06:29:03;98442.09;;;5.40;100.00
27334;BME280;14817;57.104;-2.094;2024-03-23T06:31:31;98441.16;;;5.32;100.00
27334;BME280;14817;57.104;-2.094;2024-03-23T06:33:57;98450.25;;;5.46;100.00
27334;BME280;14817;57.104;-2.094;2024-03-23T06:36:23;98451.91;;;5.39;100.00
27334;BME280;14817;57.104;-2.094;2024-03-23T06:38:48;98455.56;;;5.46;100.00
27334;BME280;14817;57.104;-2.094;2024-03-23T06:41:14;98457.22;;;5.39;100.00
27334;BME280;14817;57.104;-2.094;2024-03-23T06:43:40;98450.44;;;5.28;100.00
27334;BME280;14817;57.104;-2.094;2024-03-23T06:46:06;98455.56;;;5.38;100.00
27334;BME280;14817;57.104;-2.094;2024-03-23T06:48:32;98446.63;;;5.31;100.00
27334;BME280;14817;57.104;-2.094;2024-03-23T06:50:58;98449.59;;;5.36;100.00
27334;BME280;14817;57.104;-2.094;2024-03-23T06:53:24;98457.22;;;5.31;100.00
27334;BME280;14817;57.104;-2.094;2024-03-23T06:55:52;98453.25;;;5.35;100.00
27334;BME280;14817;57.104;-2.094;2024-03-23T06:58:22;98452.69;;;5.56;100.00
27334;BME280;14817;57.104;-2.094;2024-03-23T07:00:48;98451.19;;;5.53;100.00
27334;BME280;14817;57.104;-2.094;2024-03-23T07:03:14;98444.88;;;6.02;100.00
27334;BME280;14817;57.104;-2.094;2024-03-23T07:05:40;98443.97;;;7.02;100.00
27334;BME280;14817;57.104;-2.094;2024-03-23T07:08:07;98444.44;;;7.35;100.00
27334;BME280;14817;57.104;-2.094;2024-03-23T07:10:33;98439.13;;;6.45;100.00
27334;BME280;14817;57.104;-2.094;2024-03-23T07:12:59;98444.19;;;6.78;100.00
27334;BME280;14817;57.104;-2.094;2024-03-23T07:15:25;98451.88;;;7.55;100.00
27334;BME280;14817;57.104;-2.094;2024-03-23T07:17:51;98445.38;;;7.87;100.00
27334;BME280;14817;57.104;-2.094;2024-03-23T07:20:17;98437.78;;;8.42;100.00
27334;BME280;14817;57.104;-2.094;2024-03-23T07:22:42;98441.91;;;8.88;100.00
27334;BME280;14817;57.104;-2.094;2024-03-23T07:25:10;98437.25;;;9.25;100.00
27334;BME280;14817;57.104;-2.094;2024-03-23T07:27:36;98435.34;;;9.53;100.00
27334;BME280;14817;57.104;-2.094;2024-03-23T07:30:02;98440.34;;;9.28;100.00
27334;BME280;14817;57.104;-2.094;2024-03-23T07:32:28;98429.78;;;9.48;100.00
27334;BME280;14817;57.104;-2.094;2024-03-23T07:34:54;98436.31;;;9.39;100.00
27334;BME280;14817;57.104;-2.094;2024-03-23T07:37:20;98427.97;;;9.97;100.00
27334;BME280;14817;57.104;-2.094;2024-03-23T07:39:46;98430.75;;;10.30;100.00
27334;BME280;14817;57.104;-2.094;2024-03-23T07:42:11;98434.09;;;9.91;100.00
27334;BME280;14817;57.104;-2.094;2024-03-23T07:44:37;98423.81;;;10.62;100.00
27334;BME280;14817;57.104;-2.094;2024-03-23T07:47:03;98423.59;;;11.11;100.00
27334;BME280;14817;57.104;-2.094;2024-03-23T07:49:29;98419.44;;;11.28;100.00
27334;BME280;14817;57.104;-2.094;2024-03-23T07:51:55;98417.59;;;9.80;100.00
27334;BME280;14817;57.104;-2.094;2024-03-23T07:54:21;98424.22;;;8.87;100.00
27334;BME280;14817;57.104;-2.094;2024-03-23T07:56:47;98416.22;;;9.15;100.00
27334;BME280;14817;57.104;-2.094;2024-03-23T07:59:13;98416.22;;;7.86;100.00
27334;BME280;14817;57.104;-2.094;2024-03-23T08:01:38;98434.28;;;7.54;100.00
27334;BME280;14817;57.104;-2.094;2024-03-23T08:04:05;98430.41;;;7.27;100.00
27334;BME280;14817;57.104;-2.094;2024-03-23T08:06:31;98439.84;;;7.29;100.00
27334;BME280;14817;57.104;-2.094;2024-03-23T08:08:58;98435.41;;;6.92;100.00
27334;BME280;14817;57.104;-2.094;2024-03-23T08:11:30;98428.53;;;7.12;100.00
27334;BME280;14817;57.104;-2.094;2024-03-23T08:13:57;98433.69;;;7.14;100.00
27334;BME280;14817;57.104;-2.094;2024-03-23T08:16:23;98427.66;;;8.37;100.00
27334;BME280;14817;57.104;-2.094;2024-03-23T08:18:52;98420.19;;;8.48;100.00
27334;BME280;14817;57.104;-2.094;2024-03-23T08:21:19;98426.69;;;9.16;100.00
27334;BME280;14817;57.104;-2.094;2024-03-23T08:23:44;98410.88;;;9.15;100.00
27334;BME280;14817;57.104;-2.094;2024-03-23T08:26:12;98421.66;;;9.28;100.00
27334;BME280;14817;57.104;-2.094;2024-03-23T08:28:39;98411.03;;;10.51;100.00
27334;BME280;14817;57.104;-2.094;2024-03-23T08:31:07;98407.53;;;10.77;100.00
27334;BME280;14817;57.104;-2.094;2024-03-23T08:33:33;98399.50;;;10.77;100.00
27334;BME280;14817;57.104;-2.094;2024-03-23T08:36:04;98400.97;;;11.78;100.00
27334;BME280;14817;57.104;-2.094;2024-03-23T08:38:30;98398.25;;;10.53;100.00
27334;BME280;14817;57.104;-2.094;2024-03-23T08:43:28;98396.78;;;9.69;100.00
27334;BME280;14817;57.104;-2.094;2024-03-23T08:48:39;98407.28;;;9.29;100.00
27334;BME280;14817;57.104;-2.094;2024-03-23T08:51:06;98411.47;;;8.39;100.00
27334;BME280;14817;57.104;-2.094;2024-03-23T08:53:32;98401.09;;;8.29;100.00
27334;BME280;14817;57.104;-2.094;2024-03-23T08:55:59;98403.56;;;8.09;100.00
27334;BME280;14817;57.104;-2.094;2024-03-23T08:58:26;98408.38;;;7.99;100.00
27334;BME280;14817;57.104;-2.094;2024-03-23T09:00:54;98410.38;;;8.12;100.00
27334;BME280;14817;57.104;-2.094;2024-03-23T09:03:22;98403.44;;;7.96;100.00
27334;BME280;14817;57.104;-2.094;2024-03-23T09:05:49;98397.03;;;8.12;100.00
27334;BME280;14817;57.104;-2.094;2024-03-23T09:08:14;98408.38;;;7.99;100.00
27334;BME280;14817;57.104;-2.094;2024-03-23T09:10:42;98397.03;;;8.12;100.00
27334;BME280;14817;57.104;-2.094;2024-03-23T09:13:08;98403.53;;;8.24;100.00
27334;BME280;14817;57.104;-2.094;2024-03-23T09:15:35;98395.19;;;8.34;100.00
27334;BME280;14817;57.104;-2.094;2024-03-23T09:18:02;98393.38;;;8.34;100.00
27334;BME280;14817;57.104;-2.094;2024-03-23T09:20:28;98406.09;;;7.96;100.00
27334;BME280;14817;57.104;-2.094;2024-03-23T09:22:54;98397.56;;;8.22;100.00
27334;BME280;14817;57.104;-2.094;2024-03-23T09:25:20;98405.94;;;8.41;100.00
27334;BME280;14817;57.104;-2.094;2024-03-23T09:27:46;98418.97;;;8.50;100.00
27334;BME280;14817;57.104;-2.094;2024-03-23T09:30:13;98419.81;;;8.51;100.00
27334;BME280;14817;57.104;-2.094;2024-03-23T09:32:41;98414.91;;;8.33;100.00
27334;BME280;14817;57.104;-2.094;2024-03-23T09:35:07;98434.19;;;8.50;100.00
27334;BME280;14817;57.104;-2.094;2024-03-23T09:37:33;98429.84;;;8.49;100.00
27334;BME280;14817;57.104;-2.094;2024-03-23T09:39:59;98435.81;;;8.51;100.00
27334;BME280;14817;57.104;-2.094;2024-03-23T09:42:24;98442.72;;;8.24;100.00
27334;BME280;14817;57.104;-2.094;2024-03-23T09:44:51;98439.47;;;8.28;100.00
27334;BME280;14817;57.104;-2.094;2024-03-23T09:47:17;98447.78;;;8.40;100.00
27334;BME280;14817;57.104;-2.094;2024-03-23T09:49:44;98429.47;;;8.15;100.00
27334;BME280;14817;57.104;-2.094;2024-03-23T09:52:10;98458.06;;;8.22;100.00
27334;BME280;14817;57.104;-2.094;2024-03-23T09:54:36;98459.56;;;8.46;100.00
27334;BME280;14817;57.104;-2.094;2024-03-23T09:57:03;98462.88;;;8.48;100.00
27334;BME280;14817;57.104;-2.094;2024-03-23T09:59:29;98464.81;;;8.39;100.00
27334;BME280;14817;57.104;-2.094;2024-03-23T10:01:55;98446.06;;;8.47;100.00
27334;BME280;14817;57.104;-2.094;2024-03-23T10:04:41;98456.00;;;8.38;100.00
27334;BME280;14817;57.104;-2.094;2024-03-23T10:09:38;98460.47;;;8.53;100.00
27334;BME280;14817;57.104;-2.094;2024-03-23T10:12:11;98458.09;;;9.43;100.00
27334;BME280;14817;57.104;-2.094;2024-03-23T10:14:42;98452.22;;;9.54;100.00
27334;BME280;14817;57.104;-2.094;2024-03-23T10:19:47;98461.94;;;11.11;100.00
27334;BME280;14817;57.104;-2.094;2024-03-23T10:22:20;98437.59;;;10.46;100.00
27334;BME280;14817;57.104;-2.094;2024-03-23T10:24:47;98458.66;;;10.08;100.00
27334;BME280;14817;57.104;-2.094;2024-03-23T10:27:15;98455.25;;;9.86;100.00
27334;BME280;14817;57.104;-2.094;2024-03-23T10:29:47;98460.66;;;11.40;100.00
27334;BME280;14817;57.104;-2.094;2024-03-23T10:32:14;98450.59;;;10.76;100.00
27334;BME280;14817;57.104;-2.094;2024-03-23T10:34:41;98455.34;;;10.74;100.00
27334;BME280;14817;57.104;-2.094;2024-03-23T10:37:07;98458.41;;;10.71;100.00
27334;BME280;14817;57.104;-2.094;2024-03-23T10:39:35;98462.91;;;10.44;100.00
27334;BME280;14817;57.104;-2.094;2024-03-23T10:42:02;98466.44;;;11.31;100.00
27334;BME280;14817;57.104;-2.094;2024-03-23T10:44:30;98462.56;;;10.93;100.00
27334;BME280;14817;57.104;-2.094;2024-03-23T10:47:00;98470.81;;;11.18;100.00
27334;BME280;14817;57.104;-2.094;2024-03-23T10:49:29;98478.81;;;10.78;100.00
27334;BME280;14817;57.104;-2.094;2024-03-23T10:52:03;98458.81;;;10.74;100.00
27334;BME280;14817;57.104;-2.094;2024-03-23T10:54:33;98483.91;;;10.47;100.00
27334;BME280;14817;57.104;-2.094;2024-03-23T10:57:06;98472.22;;;10.13;100.00
27334;BME280;14817;57.104;-2.094;2024-03-23T10:59:35;98473.28;;;9.77;100.00
27334;BME280;14817;57.104;-2.094;2024-03-23T11:02:03;98481.75;;;10.22;100.00
27334;BME280;14817;57.104;-2.094;2024-03-23T11:04:38;98476.75;;;10.94;100.00
27334;BME280;14817;57.104;-2.094;2024-03-23T11:09:52;98483.53;;;10.56;100.00
27334;BME280;14817;57.104;-2.094;2024-03-23T11:14:50;98479.81;;;10.77;100.00
27334;BME280;14817;57.104;-2.094;2024-03-23T11:17:23;98472.81;;;10.63;100.00
27334;BME280;14817;57.104;-2.094;2024-03-23T11:19:54;98477.56;;;10.13;100.00
27334;BME280;14817;57.104;-2.094;2024-03-23T11:22:42;98481.75;;;10.22;100.00
27334;BME280;14817;57.104;-2.094;2024-03-23T11:25:20;98493.75;;;9.98;100.00
27334;BME280;14817;57.104;-2.094;2024-03-23T11:27:47;98496.78;;;9.81;100.00
27334;BME280;14817;57.104;-2.094;2024-03-23T11:30:48;98489.69;;;9.60;100.00
27334;BME280;14817;57.104;-2.094;2024-03-23T11:33:08;98502.13;;;9.81;100.00
27334;BME280;14817;57.104;-2.094;2024-03-23T11:35:38;98494.25;;;9.67;100.00
27334;BME280;14817;57.104;-2.094;2024-03-23T11:38:16;98497.16;;;9.44;100.00
27334;BME280;14817;57.104;-2.094;2024-03-23T11:40:47;98495.53;;;9.49;100.00
27334;BME280;14817;57.104;-2.094;2024-03-23T11:43:14;98496.03;;;9.59;100.00
27334;BME280;14817;57.104;-2.094;2024-03-23T11:45:46;98497.59;;;9.47;100.00
27334;BME280;14817;57.104;-2.094;2024-03-23T11:48:13;98490.19;;;9.49;100.00
27334;BME280;14817;57.104;-2.094;2024-03-23T11:50:41;98491.19;;;9.76;100.00
27334;BME280;14817;57.104;-2.094;2024-03-23T11:53:18;98495.25;;;9.66;100.00
27334;BME280;14817;57.104;-2.094;2024-03-23T11:58:14;98489.44;;;9.90;100.00
27334;BME280;14817;57.104;-2.094;2024-03-23T12:00:41;98492.59;;;9.72;100.00
27334;BME280;14817;57.104;-2.094;2024-03-23T12:03:07;98474.69;;;10.08;100.00
27334;BME280;14817;57.104;-2.094;2024-03-23T12:05:33;98486.94;;;9.89;100.00
27334;BME280;14817;57.104;-2.094;2024-03-23T12:10:44;98515.13;;;9.56;100.00
27334;BME280;14817;57.104;-2.094;2024-03-23T12:13:10;98501.56;;;9.30;100.00
27334;BME280;14817;57.104;-2.094;2024-03-23T12:15:36;98533.16;;;8.76;100.00
27334;BME280;14817;57.104;-2.094;2024-03-23T12:18:09;98545.09;;;8.29;100.00
27334;BME280;14817;57.104;-2.094;2024-03-23T12:20:37;98546.31;;;8.27;100.00
27334;BME280;14817;57.104;-2.094;2024-03-23T12:23:11;98552.13;;;8.01;100.00
27334;BME280;14817;57.104;-2.094;2024-03-23T12:25:39;98559.56;;;7.75;100.00
27334;BME280;14817;57.104;-2.094;2024-03-23T12:28:06;98566.94;;;7.88;100.00
27334;BME280;14817;57.104;-2.094;2024-03-23T12:30:33;98575.19;;;7.78;100.00
27334;BME280;14817;57.104;-2.094;2024-03-23T12:32:59;98560.78;;;8.03;100.00
27334;BME280;14817;57.104;-2.094;2024-03-23T12:35:25;98563.34;;;8.26;100.00
27334;BME280;14817;57.104;-2.094;2024-03-23T12:37:51;98559.56;;;8.50;100.00
27334;BME280;14817;57.104;-2.094;2024-03-23T12:40:17;98553.56;;;8.48;100.00
27334;BME280;14817;57.104;-2.094;2024-03-23T12:42:42;98550.81;;;8.77;100.00
27334;BME280;14817;57.104;-2.094;2024-03-23T12:45:08;98550.56;;;8.94;100.00
27334;BME280;14817;57.104;-2.094;2024-03-23T12:47:34;98541.34;;;9.18;100.00
27334;BME280;14817;57.104;-2.094;2024-03-23T12:50:01;98533.06;;;9.13;100.00
27334;BME280;14817;57.104;-2.094;2024-03-23T12:52:26;98529.81;;;9.39;100.00
27334;BME280;14817;57.104;-2.094;2024-03-23T12:54:56;98524.41;;;9.32;100.00
27334;BME280;14817;57.104;-2.094;2024-03-23T12:57:25;98527.41;;;9.23;100.00
27334;BME280;14817;57.104;-2.094;2024-03-23T12:59:52;98534.09;;;9.12;100.00
27334;BME280;14817;57.104;-2.094;2024-03-23T13:02:22;98542.94;;;9.12;100.00
27334;BME280;14817;57.104;-2.094;2024-03-23T13:04:52;98529.41;;;9.42;100.00
27334;BME280;14817;57.104;-2.094;2024-03-23T13:07:19;98545.41;;;9.35;100.00
27334;BME280;14817;57.104;-2.094;2024-03-23T13:09:45;98541.91;;;9.35;100.00
27334;BME280;14817;57.104;-2.094;2024-03-23T13:12:11;98544.84;;;9.18;100.00
27334;BME280;14817;57.104;-2.094;2024-03-23T13:14:40;98546.06;;;9.16;100.00
27334;BME280;14817;57.104;-2.094;2024-03-23T13:17:06;98529.72;;;9.32;100.00
27334;BME280;14817;57.104;-2.094;2024-03-23T13:19:33;98532.19;;;9.27;100.00
27334;BME280;14817;57.104;-2.094;2024-03-23T13:21:59;98515.97;;;9.29;100.00
27334;BME280;14817;57.104;-2.094;2024-03-23T13:24:26;98533.59;;;9.51;100.00
27334;BME280;14817;57.104;-2.094;2024-03-23T13:26:53;98529.13;;;9.58;100.00
27334;BME280;14817;57.104;-2.094;2024-03-23T13:29:19;98520.03;;;9.53;100.00
27334;BME280;14817;57.104;-2.094;2024-03-23T13:31:46;98522.16;;;9.64;100.00
27334;BME280;14817;57.104;-2.094;2024-03-23T13:34:13;98534.91;;;9.34;100.00
27334;BME280;14817;57.104;-2.094;2024-03-23T13:36:41;98563.22;;;8.85;100.00
27334;BME280;14817;57.104;-2.094;2024-03-23T13:39:08;98564.41;;;8.31;100.00
27334;BME280;14817;57.104;-2.094;2024-03-23T13:41:44;98561.59;;;8.03;100.00
27334;BME280;14817;57.104;-2.094;2024-03-23T13:44:13;98559.75;;;8.18;100.00
27334;BME280;14817;57.104;-2.094;2024-03-23T13:46:42;98562.59;;;8.17;100.00
27334;BME280;14817;57.104;-2.094;2024-03-23T13:49:27;98561.56;;;8.33;100.00
27334;BME280;14817;57.104;-2.094;2024-03-23T13:51:54;98561.28;;;8.43;100.00
27334;BME280;14817;57.104;-2.094;2024-03-23T13:54:21;98560.34;;;8.65;100.00
27334;BME280;14817;57.104;-2.094;2024-03-23T13:56:55;98557.03;;;8.63;100.00
27334;BME280;14817;57.104;-2.094;2024-03-23T13:59:21;98549.03;;;8.63;100.00
27334;BME280;14817;57.104;-2.094;2024-03-23T14:01:51;98553.75;;;8.83;100.00
27334;BME280;14817;57.104;-2.094;2024-03-23T14:04:17;98553.09;;;8.81;100.00